createdAt,value
2023-04-27T00:01:06.996Z,6.65
2023-04-27T00:03:33.746Z,6.43
2023-04-27T00:06:00.469Z,4.90
2023-04-27T00:08:27.134Z,6.57
2023-04-27T00:10:53.729Z,6.47
2023-04-27T00:13:20.481Z,7.85
2023-04-27T00:15:47.017Z,8.52
2023-04-27T00:18:13.460Z,8.18
2023-04-27T00:20:40.900Z,6.97
2023-04-27T00:23:07.361Z,7.28
2023-04-27T00:25:33.995Z,7.38
2023-04-27T00:28:00.615Z,6.47
2023-04-27T00:30:27.234Z,5.07
2023-04-27T00:32:53.709Z,6.25
2023-04-27T00:35:20.425Z,6.72
2023-04-27T00:37:47.031Z,6.72
2023-04-27T00:40:13.799Z,6.93
2023-04-27T00:42:40.483Z,4.05
2023-04-27T00:45:07.598Z,5.90
2023-04-27T00:47:34.769Z,6.13
2023-04-27T00:50:01.537Z,6.70
2023-04-27T00:52:28.073Z,6.32
2023-04-27T00:54:57.409Z,6.05
2023-04-27T00:57:23.955Z,5.15
2023-04-27T00:59:50.659Z,6.20
2023-04-27T01:02:17.410Z,5.68
2023-04-27T01:04:44.509Z,5.75
2023-04-27T01:07:11.034Z,5.15
2023-04-27T01:09:37.530Z,5.57
2023-04-27T01:12:04.825Z,5.78
2023-04-27T01:14:31.541Z,5.68
2023-04-27T01:16:58.462Z,6.05
2023-04-27T01:19:25.038Z,6.07
2023-04-27T01:21:51.579Z,6.10
2023-04-27T01:24:18.088Z,5.78
2023-04-27T01:26:44.600Z,5.32
2023-04-27T01:29:11.567Z,5.63
2023-04-27T01:31:38.781Z,6.55
2023-04-27T01:34:06.117Z,5.95
2023-04-27T01:36:32.856Z,5.78
2023-04-27T01:38:59.384Z,5.57
2023-04-27T01:41:25.933Z,6.22
2023-04-27T01:43:52.502Z,5.28
2023-04-27T01:46:19.063Z,5.32
2023-04-27T01:48:45.701Z,5.13
2023-04-27T01:51:12.266Z,5.90
2023-04-27T01:53:38.802Z,5.43
2023-04-27T01:56:06.887Z,5.57
2023-04-27T01:58:33.406Z,5.40
2023-04-27T02:00:59.893Z,5.53
2023-04-27T02:03:26.786Z,6.10
2023-04-27T02:05:53.435Z,6.00
2023-04-27T02:08:20.243Z,5.38
2023-04-27T02:10:46.798Z,5.35
2023-04-27T02:13:13.345Z,4.95
2023-04-27T02:15:39.871Z,5.50
2023-04-27T02:18:06.611Z,6.60
2023-04-27T02:20:33.385Z,5.43
2023-04-27T02:23:00.249Z,5.47
2023-04-27T02:25:26.932Z,5.70
2023-04-27T02:27:53.767Z,4.32
2023-04-27T02:30:21.367Z,4.80
2023-04-27T02:32:48.361Z,6.15
2023-04-27T02:35:14.918Z,5.32
2023-04-27T02:37:41.710Z,3.67
2023-04-27T02:40:09.379Z,5.57
2023-04-27T02:42:38.240Z,5.38
2023-04-27T02:45:06.978Z,5.68
2023-04-27T02:47:33.590Z,4.97
2023-04-27T02:50:01.095Z,4.72
2023-04-27T02:52:27.853Z,5.90
2023-04-27T02:54:54.537Z,5.20
2023-04-27T02:57:21.105Z,4.30
2023-04-27T02:59:47.603Z,5.25
2023-04-27T03:02:14.126Z,4.53
2023-04-27T03:04:40.778Z,4.65
2023-04-27T03:07:07.299Z,4.90
2023-04-27T03:09:33.763Z,5.15
2023-04-27T03:12:00.429Z,5.05
2023-04-27T03:14:27.021Z,3.90
2023-04-27T03:16:55.706Z,4.45
2023-04-27T03:19:22.173Z,4.55
2023-04-27T03:21:48.682Z,4.95
2023-04-27T03:24:15.197Z,4.57
2023-04-27T03:26:41.708Z,4.88
2023-04-27T03:29:08.136Z,5.00
2023-04-27T03:31:34.671Z,4.43
2023-04-27T03:34:01.628Z,4.75
2023-04-27T03:36:28.557Z,4.95
2023-04-27T03:38:55.031Z,4.40
2023-04-27T03:41:21.629Z,4.93
2023-04-27T03:43:49.098Z,4.90
2023-04-27T03:46:15.572Z,4.90
2023-04-27T03:48:43.856Z,4.20
2023-04-27T03:51:10.379Z,4.70
2023-04-27T03:53:36.847Z,4.32
2023-04-27T03:56:03.652Z,3.25
2023-04-27T03:58:30.104Z,4.22
2023-04-27T04:00:57.330Z,4.35
2023-04-27T04:03:24.005Z,4.45
2023-04-27T04:05:50.564Z,4.57
2023-04-27T04:08:17.057Z,2.90
2023-04-27T04:10:43.663Z,4.20
2023-04-27T04:13:11.041Z,4.22
2023-04-27T04:15:37.610Z,4.75
2023-04-27T04:18:04.264Z,4.35
2023-04-27T04:20:30.772Z,4.93
2023-04-27T04:22:57.239Z,4.43
2023-04-27T04:25:26.079Z,4.80
2023-04-27T04:27:52.588Z,5.00
2023-04-27T04:30:20.005Z,4.03
2023-04-27T04:32:46.600Z,2.88
2023-04-27T04:35:13.312Z,4.22
2023-04-27T04:37:39.850Z,4.80
2023-04-27T04:40:09.053Z,4.75
2023-04-27T04:42:39.198Z,4.28
2023-04-27T04:45:07.135Z,4.45
2023-04-27T04:47:34.296Z,4.32
2023-04-27T04:50:01.221Z,4.15
2023-04-27T04:52:27.748Z,4.47
2023-04-27T04:54:54.267Z,4.68
2023-04-27T04:57:21.331Z,4.50
2023-04-27T04:59:48.030Z,4.35
2023-04-27T05:02:14.659Z,4.40
2023-04-27T05:04:41.374Z,4.68
2023-04-27T05:07:08.197Z,3.83
2023-04-27T05:09:34.762Z,4.35
2023-04-27T05:12:01.852Z,4.63
2023-04-27T05:14:28.465Z,4.55
2023-04-27T05:16:55.123Z,4.95
2023-04-27T05:19:21.735Z,4.50
2023-04-27T05:21:48.388Z,4.53
2023-04-27T05:24:14.928Z,4.30
2023-04-27T05:26:43.456Z,4.40
2023-04-27T05:29:09.982Z,4.50
2023-04-27T05:31:36.495Z,3.00
2023-04-27T05:34:03.101Z,4.32
2023-04-27T05:36:29.774Z,4.32
2023-04-27T05:38:56.302Z,5.05
2023-04-27T05:41:23.770Z,4.18
2023-04-27T05:43:50.304Z,4.63
2023-04-27T05:46:16.978Z,4.47
2023-04-27T05:48:43.517Z,4.45
2023-04-27T05:51:10.138Z,5.15
2023-04-27T05:53:36.642Z,4.78
2023-04-27T05:56:04.600Z,5.15
2023-04-27T05:58:31.300Z,4.63
2023-04-27T06:00:57.894Z,4.80
2023-04-27T06:03:25.083Z,4.57
2023-04-27T06:05:59.736Z,4.57
2023-04-27T06:08:27.386Z,5.00
2023-04-27T06:10:54.339Z,5.03
2023-04-27T06:13:21.778Z,5.00
2023-04-27T06:15:48.417Z,5.45
2023-04-27T06:18:15.089Z,4.25
2023-04-27T06:20:42.916Z,4.70
2023-04-27T06:23:09.469Z,4.65
2023-04-27T06:25:38.790Z,5.15
2023-04-27T06:28:05.400Z,4.75
2023-04-27T06:30:31.894Z,4.90
2023-04-27T06:32:58.629Z,4.47
2023-04-27T06:35:25.079Z,5.05
2023-04-27T06:37:51.528Z,5.15
2023-04-27T06:40:18.269Z,3.25
2023-04-27T06:42:44.882Z,4.70
2023-04-27T06:45:12.350Z,4.82
2023-04-27T06:47:38.810Z,3.33
2023-04-27T06:50:05.815Z,5.32
2023-04-27T06:52:33.839Z,4.63
2023-04-27T06:55:00.389Z,4.78
2023-04-27T06:57:27.807Z,4.53
2023-04-27T06:59:54.477Z,4.95
2023-04-27T07:02:21.849Z,4.65
2023-04-27T07:04:50.240Z,4.68
2023-04-27T07:07:16.863Z,4.85
2023-04-27T07:09:43.566Z,4.40
2023-04-27T07:12:10.049Z,4.28
2023-04-27T07:14:36.542Z,4.53
2023-04-27T07:17:03.057Z,4.60
2023-04-27T07:19:29.585Z,4.47
2023-04-27T07:21:56.156Z,4.03
2023-04-27T07:24:22.684Z,3.72
2023-04-27T07:26:49.377Z,4.32
2023-04-27T07:29:26.394Z,3.78
2023-04-27T07:31:54.520Z,3.47
2023-04-27T07:34:21.498Z,3.60
2023-04-27T07:36:48.169Z,3.78
2023-04-27T07:39:15.028Z,3.58
2023-04-27T07:41:41.739Z,4.00
2023-04-27T07:44:08.220Z,2.22
2023-04-27T07:46:34.890Z,3.20
2023-04-27T07:49:02.508Z,3.90
2023-04-27T07:51:29.365Z,3.45
2023-04-27T07:53:56.364Z,4.32
2023-04-27T07:56:22.939Z,2.40
2023-04-27T07:58:49.455Z,3.75
2023-04-27T08:01:16.942Z,2.08
2023-04-27T08:03:44.696Z,3.38
2023-04-27T08:06:12.216Z,2.83
2023-04-27T08:08:38.993Z,3.30
2023-04-27T08:11:08.878Z,2.55
2023-04-27T08:13:36.205Z,2.10
2023-04-27T08:16:03.052Z,2.30
2023-04-27T08:18:29.612Z,1.98
2023-04-27T08:20:56.174Z,3.47
2023-04-27T08:23:22.764Z,1.70
2023-04-27T08:25:49.223Z,2.10
2023-04-27T08:28:16.059Z,1.80
2023-04-27T08:30:42.949Z,1.80
2023-04-27T08:33:09.927Z,2.10
2023-04-27T08:35:36.645Z,2.05
2023-04-27T08:38:03.230Z,3.05
2023-04-27T08:40:29.802Z,1.90
2023-04-27T08:42:58.198Z,1.67
2023-04-27T08:45:26.309Z,1.42
2023-04-27T08:47:53.233Z,1.60
2023-04-27T08:50:20.108Z,2.58
2023-04-27T08:52:48.303Z,1.80
2023-04-27T08:55:16.655Z,1.98
2023-04-27T08:57:57.533Z,1.83
2023-04-27T09:00:25.502Z,1.42
2023-04-27T09:02:52.238Z,2.22
2023-04-27T09:05:21.363Z,1.65
2023-04-27T09:08:05.783Z,1.60
2023-04-27T09:10:44.736Z,1.55
2023-04-27T09:13:11.607Z,1.60
2023-04-27T09:15:48.884Z,1.50
2023-04-27T09:18:23.277Z,1.70
2023-04-27T09:20:51.591Z,1.63
2023-04-27T09:23:29.480Z,1.63
2023-04-27T09:25:57.323Z,1.60
2023-04-27T09:28:27.569Z,2.00
2023-04-27T09:30:59.499Z,1.80
2023-04-27T09:33:28.486Z,2.50
2023-04-27T09:35:55.548Z,1.80
2023-04-27T09:38:22.925Z,1.80
2023-04-27T09:40:51.444Z,2.00
2023-04-27T09:43:18.031Z,2.08
2023-04-27T09:45:45.166Z,1.92
2023-04-27T09:48:12.989Z,1.60
2023-04-27T09:50:44.380Z,1.85
2023-04-27T09:53:13.795Z,1.63
2023-04-27T09:55:42.877Z,1.85
2023-04-27T09:58:33.775Z,2.55
2023-04-27T10:01:40.753Z,2.30
2023-04-27T10:04:30.628Z,1.85
2023-04-27T10:07:03.950Z,1.70
2023-04-27T10:09:47.674Z,1.90
2023-04-27T10:12:20.012Z,2.63
2023-04-27T10:14:51.342Z,1.88
2023-04-27T10:17:18.656Z,2.03
2023-04-27T10:19:58.272Z,2.38
2023-04-27T10:22:37.652Z,1.92
2023-04-27T10:25:22.537Z,2.53
2023-04-27T10:28:01.225Z,2.22
2023-04-27T10:30:32.694Z,2.17
2023-04-27T10:33:03.986Z,1.92
2023-04-27T10:35:37.184Z,2.05
2023-04-27T10:38:18.071Z,1.90
2023-04-27T10:40:46.172Z,2.08
2023-04-27T10:43:14.899Z,2.30
2023-04-27T10:48:09.005Z,2.20
2023-04-27T10:50:35.698Z,2.40
2023-04-27T10:53:07.263Z,1.90
2023-04-27T10:55:35.290Z,2.55
2023-04-27T10:58:02.567Z,2.28
2023-04-27T11:00:36.619Z,2.13
2023-04-27T11:03:21.081Z,3.60
2023-04-27T11:05:49.391Z,1.85
2023-04-27T11:08:20.977Z,2.25
2023-04-27T11:10:50.121Z,2.38
2023-04-27T11:13:19.737Z,2.40
2023-04-27T11:15:49.208Z,2.10
2023-04-27T11:18:17.892Z,2.10
2023-04-27T11:20:47.411Z,2.40
2023-04-27T11:23:25.031Z,2.30
2023-04-27T11:25:52.429Z,2.22
2023-04-27T11:28:20.541Z,2.40
2023-04-27T11:30:47.671Z,2.20
2023-04-27T11:33:14.280Z,2.10
2023-04-27T11:35:42.564Z,2.47
2023-04-27T11:38:15.951Z,2.53
2023-04-27T11:40:42.760Z,3.55
2023-04-27T11:43:13.300Z,2.40
2023-04-27T11:45:46.287Z,2.40
2023-04-27T11:48:16.688Z,2.58
2023-04-27T11:50:48.380Z,2.50
2023-04-27T11:53:17.376Z,2.28
2023-04-27T11:55:45.854Z,2.95
2023-04-27T11:58:16.411Z,2.50
2023-04-27T12:00:42.915Z,2.30
2023-04-27T12:03:09.850Z,2.60
2023-04-27T12:05:36.922Z,2.40
2023-04-27T12:08:03.600Z,2.40
2023-04-27T12:10:31.112Z,2.40
2023-04-27T12:12:57.616Z,2.45
2023-04-27T12:15:24.233Z,2.20
2023-04-27T12:17:50.989Z,2.60
2023-04-27T12:20:17.683Z,2.67
2023-04-27T12:22:44.295Z,2.53
2023-04-27T12:25:11.080Z,2.83
2023-04-27T12:27:37.600Z,2.65
2023-04-27T12:30:04.801Z,2.60
2023-04-27T12:32:31.909Z,2.53
2023-04-27T12:34:58.517Z,2.70
2023-04-27T12:37:26.998Z,2.88
2023-04-27T12:42:24.119Z,2.80
2023-04-27T12:44:51.593Z,2.63
2023-04-27T12:47:40.505Z,2.47
2023-04-27T12:50:05.851Z,2.38
2023-04-27T12:52:32.385Z,2.53
2023-04-27T12:54:59.484Z,2.85
2023-04-27T12:57:26.636Z,3.00
2023-04-27T12:59:53.564Z,2.72
2023-04-27T13:02:20.301Z,2.97
2023-04-27T13:04:47.228Z,2.75
2023-04-27T13:07:13.837Z,2.80
2023-04-27T13:09:41.602Z,2.55
2023-04-27T13:12:08.206Z,2.70
2023-04-27T13:14:34.861Z,2.80
2023-04-27T13:17:02.320Z,3.00
2023-04-27T13:19:29.015Z,3.28
2023-04-27T13:21:55.615Z,3.05
2023-04-27T13:24:24.543Z,2.72
2023-04-27T13:26:51.031Z,2.72
2023-04-27T13:29:18.087Z,3.08
2023-04-27T13:31:44.660Z,3.22
2023-04-27T13:34:11.207Z,2.90
2023-04-27T13:36:37.710Z,2.38
2023-04-27T13:39:04.982Z,4.10
2023-04-27T13:41:31.516Z,2.60
2023-04-27T13:43:58.016Z,2.63
2023-04-27T13:46:24.544Z,2.63
2023-04-27T13:48:51.237Z,2.20
2023-04-27T13:51:17.925Z,2.15
2023-04-27T13:53:45.772Z,2.35
2023-04-27T13:56:12.402Z,3.25
2023-04-27T13:58:39.212Z,1.92
2023-04-27T14:01:05.890Z,2.17
2023-04-27T14:03:33.787Z,2.40
2023-04-27T14:06:01.511Z,2.38
2023-04-27T14:08:28.150Z,2.40
2023-04-27T14:10:55.197Z,6.15
2023-04-27T14:13:21.838Z,8.65
2023-04-27T14:15:48.506Z,2.53
2023-04-27T14:18:15.728Z,2.38
2023-04-27T14:20:47.284Z,2.10
2023-04-27T14:23:13.848Z,2.20
2023-04-27T14:25:42.659Z,1.95
2023-04-27T14:28:10.894Z,2.17
2023-04-27T14:30:37.669Z,2.15
2023-04-27T14:33:04.268Z,2.15
2023-04-27T14:35:31.030Z,1.85
2023-04-27T14:38:02.073Z,2.00
2023-04-27T14:40:32.545Z,1.80
2023-04-27T14:42:59.093Z,2.33
2023-04-27T14:45:30.949Z,2.50
2023-04-27T14:48:03.588Z,2.22
2023-04-27T14:50:30.210Z,2.00
2023-04-27T14:52:58.826Z,1.92
2023-04-27T14:57:52.082Z,2.10
2023-04-27T15:00:18.774Z,1.70
2023-04-27T15:02:45.930Z,1.75
2023-04-27T15:05:12.508Z,1.98
2023-04-27T15:07:39.121Z,1.60
2023-04-27T15:10:06.344Z,1.88
2023-04-27T15:12:32.903Z,1.77
2023-04-27T15:14:59.460Z,2.15
2023-04-27T15:17:27.452Z,1.70
2023-04-27T15:19:54.716Z,1.98
2023-04-27T15:22:21.567Z,1.88
2023-04-27T15:24:48.099Z,1.90
2023-04-27T15:27:18.692Z,1.65
2023-04-27T15:29:45.230Z,1.60
2023-04-27T15:32:11.801Z,1.80
2023-04-27T15:34:38.594Z,1.30
2023-04-27T15:37:06.944Z,2.20
2023-04-27T15:39:33.483Z,1.67
2023-04-27T15:42:01.298Z,1.70
2023-04-27T15:44:27.791Z,1.63
2023-04-27T15:46:54.534Z,1.90
2023-04-27T15:49:21.528Z,1.73
2023-04-27T15:51:48.071Z,1.50
2023-04-27T15:54:14.589Z,1.40
2023-04-27T15:56:41.080Z,1.50
2023-04-27T15:59:11.013Z,1.83
2023-04-27T16:01:37.650Z,1.90
2023-04-27T16:04:04.508Z,1.73
2023-04-27T16:06:35.735Z,1.80
2023-04-27T16:09:04.089Z,2.67
2023-04-27T16:11:31.667Z,2.88
2023-04-27T16:13:58.561Z,1.75
2023-04-27T16:16:25.194Z,1.95
2023-04-27T16:18:51.707Z,1.73
2023-04-27T16:21:18.367Z,2.70
2023-04-27T16:23:44.877Z,2.00
2023-04-27T16:26:11.486Z,1.70
2023-04-27T16:28:38.094Z,2.20
2023-04-27T16:31:04.654Z,2.22
2023-04-27T16:33:32.554Z,1.85
2023-04-27T16:35:59.063Z,2.25
2023-04-27T16:38:25.694Z,1.92
2023-04-27T16:40:52.727Z,1.70
2023-04-27T16:43:19.336Z,2.10
2023-04-27T16:45:46.045Z,1.52
2023-04-27T16:48:12.913Z,2.03
2023-04-27T16:50:39.412Z,1.92
2023-04-27T16:53:07.385Z,2.00
2023-04-27T16:55:35.065Z,1.80
2023-04-27T16:58:01.783Z,2.20
2023-04-27T17:00:28.888Z,1.80
2023-04-27T17:02:55.538Z,2.00
2023-04-27T17:05:22.260Z,1.92
2023-04-27T17:07:48.982Z,2.00
2023-04-27T17:10:16.892Z,2.20
2023-04-27T17:12:43.474Z,2.08
2023-04-27T17:15:11.974Z,2.55
2023-04-27T17:17:38.680Z,1.73
2023-04-27T17:20:06.950Z,1.95
2023-04-27T17:22:33.525Z,2.13
2023-04-27T17:25:00.105Z,2.38
2023-04-27T17:27:26.717Z,1.65
2023-04-27T17:29:54.509Z,2.38
2023-04-27T17:32:21.197Z,2.08
2023-04-27T17:34:47.980Z,2.38
2023-04-27T17:37:14.891Z,2.35
2023-04-27T17:39:41.483Z,2.40
2023-04-27T17:42:12.223Z,2.28
2023-04-27T17:44:41.549Z,2.80
2023-04-27T17:47:08.336Z,2.53
2023-04-27T17:49:35.615Z,3.35
2023-04-27T17:52:03.935Z,2.35
2023-04-27T17:54:30.612Z,2.33
2023-04-27T17:56:57.320Z,2.70
2023-04-27T17:59:24.883Z,2.42
2023-04-27T18:01:51.616Z,2.53
2023-04-27T18:04:18.274Z,2.78
2023-04-27T18:06:44.880Z,2.45
2023-04-27T18:09:12.232Z,2.53
2023-04-27T18:11:38.969Z,2.58
2023-04-27T18:14:05.537Z,4.38
2023-04-27T18:16:32.608Z,2.60
2023-04-27T18:18:59.213Z,2.65
2023-04-27T18:21:28.049Z,4.05
2023-04-27T18:23:54.547Z,2.65
2023-04-27T18:26:22.005Z,2.53
2023-04-27T18:28:48.521Z,2.42
2023-04-27T18:31:19.122Z,2.25
2023-04-27T18:33:46.448Z,2.10
2023-04-27T18:36:13.221Z,2.42
2023-04-27T18:38:42.451Z,2.58
2023-04-27T18:41:08.956Z,2.70
2023-04-27T18:43:38.753Z,4.18
2023-04-27T18:46:05.937Z,2.90
2023-04-27T18:48:32.630Z,2.72
2023-04-27T18:50:59.164Z,3.00
2023-04-27T18:53:26.590Z,2.83
2023-04-27T18:55:53.284Z,3.00
2023-04-27T18:58:20.011Z,3.40
2023-04-27T19:00:46.575Z,2.53
2023-04-27T19:03:13.439Z,2.95
2023-04-27T19:05:42.874Z,2.53
2023-04-27T19:08:12.201Z,2.83
2023-04-27T19:10:41.255Z,2.90
2023-04-27T19:15:34.537Z,3.60
2023-04-27T19:18:09.993Z,4.03
2023-04-27T19:20:38.039Z,2.72
2023-04-27T19:23:05.228Z,3.10
2023-04-27T19:25:31.971Z,2.85
2023-04-27T19:27:58.639Z,3.65
2023-04-27T19:30:25.316Z,2.53
2023-04-27T19:32:51.986Z,2.75
2023-04-27T19:35:20.246Z,2.80
2023-04-27T19:37:46.730Z,2.90
2023-04-27T19:40:13.709Z,2.65
2023-04-27T19:42:40.502Z,2.90
2023-04-27T19:45:07.679Z,3.03
2023-04-27T19:47:34.540Z,2.60
2023-04-27T19:50:01.255Z,2.80
2023-04-27T19:52:27.974Z,4.35
2023-04-27T19:54:54.706Z,2.83
2023-04-27T19:57:21.767Z,3.85
2023-04-27T19:59:48.279Z,3.05
2023-04-27T20:02:15.318Z,3.15
2023-04-27T20:04:42.210Z,2.85
2023-04-27T20:07:09.147Z,3.67
2023-04-27T20:09:35.643Z,2.97
2023-04-27T20:12:03.684Z,3.85
2023-04-27T20:14:33.650Z,2.70
2023-04-27T20:17:00.438Z,2.53
2023-04-27T20:19:29.079Z,2.65
2023-04-27T20:21:55.752Z,4.15
2023-04-27T20:24:22.818Z,2.65
2023-04-27T20:26:49.460Z,3.90
2023-04-27T20:29:16.144Z,2.70
2023-04-27T20:31:42.689Z,2.65
2023-04-27T20:34:11.840Z,4.03
2023-04-27T20:36:38.435Z,2.60
2023-04-27T20:39:05.709Z,2.72
2023-04-27T20:41:35.659Z,2.58
2023-04-27T20:44:02.356Z,3.55
2023-04-27T20:46:29.609Z,3.53
2023-04-27T20:48:56.259Z,2.50
2023-04-27T20:51:23.636Z,2.60
2023-04-27T20:53:50.197Z,2.72
2023-04-27T20:56:16.991Z,2.30
2023-04-27T20:58:44.109Z,2.67
2023-04-27T21:01:10.646Z,2.47
2023-04-27T21:03:37.346Z,3.75
2023-04-27T21:06:04.164Z,2.90
2023-04-27T21:08:30.770Z,3.45
2023-04-27T21:10:57.577Z,3.72
2023-04-27T21:13:24.531Z,4.05
2023-04-27T21:15:51.096Z,2.80
2023-04-27T21:18:28.862Z,4.53
2023-04-27T21:20:56.627Z,2.85
2023-04-27T21:23:23.268Z,3.08
2023-04-27T21:25:49.726Z,3.17
2023-04-27T21:28:16.348Z,3.10
2023-04-27T21:30:42.938Z,3.65
2023-04-27T21:33:09.534Z,2.55
2023-04-27T21:35:36.435Z,3.90
2023-04-27T21:38:02.960Z,2.80
2023-04-27T21:40:29.428Z,3.95
2023-04-27T21:42:56.401Z,2.80
2023-04-27T21:45:23.237Z,4.22
2023-04-27T21:47:49.857Z,3.20
2023-04-27T21:50:16.817Z,4.22
2023-04-27T21:52:43.399Z,2.97
2023-04-27T21:55:10.058Z,3.08
2023-04-27T21:57:36.868Z,4.07
2023-04-27T22:00:13.026Z,4.25
2023-04-27T22:02:42.423Z,4.57
2023-04-27T22:05:09.685Z,3.05
2023-04-27T22:07:37.489Z,4.50
2023-04-27T22:10:05.800Z,3.00
2023-04-27T22:12:33.417Z,3.15
2023-04-27T22:15:00.854Z,4.13
2023-04-27T22:17:27.951Z,4.68
2023-04-27T22:19:54.947Z,4.50
2023-04-27T22:22:21.517Z,3.08
2023-04-27T22:24:47.956Z,4.55
2023-04-27T22:27:14.452Z,2.83
2023-04-27T22:29:40.925Z,4.65
2023-04-27T22:32:07.575Z,4.25
2023-04-27T22:34:34.138Z,4.15
2023-04-27T22:37:02.000Z,4.05
2023-04-27T22:39:29.898Z,4.78
2023-04-27T22:41:56.358Z,3.97
2023-04-27T22:44:22.899Z,4.40
2023-04-27T22:46:49.486Z,4.22
2023-04-27T22:49:17.273Z,3.80
2023-04-27T22:51:43.840Z,4.65
2023-04-27T22:54:10.479Z,3.42
2023-04-27T22:56:36.941Z,4.28
2023-04-27T22:59:03.643Z,5.13
2023-04-27T23:01:30.313Z,4.05
2023-04-27T23:03:57.016Z,4.43
2023-04-27T23:06:23.537Z,4.20
2023-04-27T23:08:50.357Z,3.25
2023-04-27T23:11:19.003Z,4.25
2023-04-27T23:13:48.439Z,4.47
2023-04-27T23:16:15.724Z,3.90
2023-04-27T23:18:42.582Z,4.00
2023-04-27T23:21:11.303Z,4.07
2023-04-27T23:23:37.867Z,4.20
2023-04-27T23:26:12.177Z,4.15
2023-04-27T23:28:38.812Z,3.30
2023-04-27T23:31:05.306Z,4.55
2023-04-27T23:33:32.130Z,4.15
2023-04-27T23:35:58.553Z,3.15
2023-04-27T23:38:25.163Z,3.28
2023-04-27T23:40:52.043Z,4.05
2023-04-27T23:43:18.527Z,5.00
2023-04-27T23:45:52.616Z,3.78
2023-04-27T23:48:19.567Z,4.63
2023-04-27T23:50:46.426Z,4.60
2023-04-27T23:53:12.859Z,4.68
2023-04-27T23:55:39.535Z,4.53
2023-04-27T23:58:06.212Z,4.63
